Time;durP1;ratioP1;P1;durP2;ratioP2;P2;SDS_P1;SDS_P2;PMS_P1;PMS_P2;Temp;Humidity;BMP_temperature;BMP_pressure;BME280_temperature;BME280_humidity;BME280_pressure;Samples;Min_cycle;Max_cycle;Signal;HPM_P1;HPM_P2
2021/07/01 00:00:22;;;;;;;7.97;6.80;;;15.80;99.90;;;;;;5093902;28;20118;-78
2021/07/01 00:02:48;;;;;;;7.43;6.40;;;15.90;99.90;;;;;;5104608;28;20027;-78
2021/07/01 00:05:15;;;;;;;8.38;7.28;;;15.90;99.90;;;;;;5115466;28;20073;-78
2021/07/01 00:07:42;;;;;;;8.25;6.72;;;15.90;99.90;;;;;;5114150;28;20077;-77
2021/07/01 00:10:15;;;;;;;13.55;9.23;;;15.80;99.90;;;;;;5113961;28;20016;-77
2021/07/01 00:12:40;;;;;;;;;;;15.70;99.90;;;;;;5119877;27;20500;-78
2021/07/01 00:15:09;;;;;;;23.15;14.13;;;15.50;99.90;;;;;;5135079;27;20040;-77
2021/07/01 00:17:35;;;;;;;20.50;11.10;;;15.50;99.90;;;;;;5134520;27;20019;-77
2021/07/01 00:20:03;;;;;;;10.88;8.43;;;15.40;99.90;;;;;;5135697;27;20015;-77
2021/07/01 00:22:29;;;;;;;12.02;7.32;;;15.40;99.90;;;;;;5132621;27;20498;-77
2021/07/01 00:24:54;;;;;;;10.10;7.40;;;15.30;99.90;;;;;;5111985;28;20103;-78
2021/07/01 00:27:20;;;;;;;9.88;8.00;;;15.30;99.90;;;;;;5113727;28;20472;-78
2021/07/01 00:29:46;;;;;;;12.48;9.05;;;15.30;99.90;;;;;;5115100;28;20032;-77
2021/07/01 00:32:11;;;;;;;10.25;8.95;;;15.30;99.90;;;;;;5113607;28;20817;-77
2021/07/01 00:34:37;;;;;;;9.13;7.68;;;15.30;99.90;;;;;;5114888;28;20024;-77
2021/07/01 00:37:03;;;;;;;10.45;7.63;;;15.30;99.90;;;;;;5114836;28;20024;-77
2021/07/01 00:39:29;;;;;;;11.98;7.78;;;15.30;99.90;;;;;;5114845;28;20103;-77
2021/07/01 00:41:54;;;;;;;10.63;8.20;;;15.30;99.90;;;;;;5113520;28;20035;-77
2021/07/01 00:44:20;;;;;;;9.35;6.90;;;15.30;99.90;;;;;;5112613;28;20065;-78
2021/07/01 00:46:45;;;;;;;7.97;7.07;;;15.40;99.90;;;;;;5114668;28;20032;-77
2021/07/01 00:49:11;;;;;;;7.97;7.18;;;15.40;99.90;;;;;;5114536;28;20066;-78
2021/07/01 00:51:37;;;;;;;8.43;7.20;;;15.40;99.90;;;;;;5114648;28;20074;-77
2021/07/01 00:54:03;;;;;;;8.20;7.15;;;15.40;99.90;;;;;;5113231;28;20030;-77
2021/07/01 00:56:29;;;;;;;9.52;7.88;;;15.50;99.90;;;;;;5114571;28;20028;-77
2021/07/01 00:58:55;;;;;;;10.20;7.60;;;15.50;99.90;;;;;;5114410;28;20389;-77
2021/07/01 01:01:22;;;;;;;10.77;8.07;;;15.50;99.90;;;;;;5112995;28;20365;-78
2021/07/01 01:03:48;;;;;;;9.30;7.25;;;15.50;99.90;;;;;;5113070;28;20026;-77
2021/07/01 01:06:14;;;;;;;8.15;6.63;;;15.60;99.90;;;;;;5114210;28;20111;-77
2021/07/01 01:08:40;;;;;;;9.98;7.32;;;15.60;99.90;;;;;;5113032;28;20051;-78
2021/07/01 01:11:06;;;;;;;8.93;7.43;;;15.60;99.90;;;;;;5113993;28;20484;-78
2021/07/01 01:13:32;;;;;;;10.57;7.03;;;15.60;99.90;;;;;;5108688;28;20031;-77
2021/07/01 01:16:02;;;;;;;8.32;7.43;;;15.60;99.90;;;;;;5093738;28;20099;-78
2021/07/01 01:18:29;;;;;;;8.55;6.97;;;15.60;99.90;;;;;;5093737;28;20028;-77
2021/07/01 01:20:57;;;;;;;10.48;8.18;;;15.50;99.90;;;;;;5093535;28;20105;-77
2021/07/01 01:23:23;;;;;;;14.00;9.30;;;15.40;99.90;;;;;;5093640;28;20073;-78
2021/07/01 01:25:52;;;;;;;9.65;8.48;;;15.30;99.90;;;;;;5093525;28;20028;-78
2021/07/01 01:28:19;;;;;;;9.50;7.38;;;15.30;99.90;;;;;;5093510;28;20020;-78
2021/07/01 01:30:45;;;;;;;9.35;7.93;;;15.30;99.90;;;;;;5092183;28;20492;-77
2021/07/01 01:33:11;;;;;;;13.38;8.30;;;15.30;99.90;;;;;;5092404;28;20024;-77
2021/07/01 01:35:39;;;;;;;11.85;10.02;;;15.30;99.90;;;;;;5092163;28;20090;-77
2021/07/01 01:38:09;;;;;;;10.88;9.25;;;15.30;99.90;;;;;;5092052;28;20385;-78
2021/07/01 01:40:34;;;;;;;9.48;8.02;;;15.30;99.90;;;;;;5091900;28;20031;-77
2021/07/01 01:43:00;;;;;;;8.90;7.88;;;15.30;99.90;;;;;;5092435;28;20412;-78
2021/07/01 01:45:26;;;;;;;9.18;7.15;;;15.30;99.90;;;;;;5113594;28;20602;-77
2021/07/01 01:47:52;;;;;;;22.05;8.52;;;15.40;99.90;;;;;;5112206;28;20102;-78
2021/07/01 01:50:19;;;;;;;9.00;7.22;;;15.40;99.90;;;;;;5112278;28;20020;-78
2021/07/01 01:52:45;;;;;;;9.25;7.82;;;15.50;99.90;;;;;;5112098;28;20024;-77
2021/07/01 01:55:13;;;;;;;11.27;7.70;;;15.60;99.90;;;;;;5113044;28;20137;-77
2021/07/01 01:57:47;;;;;;;9.48;7.50;;;15.60;99.90;;;;;;5112181;28;20429;-77
2021/07/01 02:00:15;;;;;;;10.48;7.95;;;15.60;99.90;;;;;;5111763;28;20024;-78
2021/07/01 02:02:41;;;;;;;7.82;6.63;;;15.60;99.90;;;;;;5112061;28;20032;-78
2021/07/01 02:05:09;;;;;;;7.40;6.68;;;15.70;99.90;;;;;;5113340;28;20024;-77
2021/07/01 02:07:35;;;;;;;6.38;5.72;;;15.70;99.90;;;;;;5112062;28;20058;-77
2021/07/01 02:10:08;;;;;;;7.10;6.38;;;15.80;99.90;;;;;;5111948;28;20039;-78
2021/07/01 02:12:35;;;;;;;6.10;5.25;;;15.90;99.90;;;;;;5112311;28;20047;-77
2021/07/01 02:15:03;;;;;;;6.55;6.05;;;15.90;99.90;;;;;;5123935;28;20068;-77
2021/07/01 02:17:29;;;;;;;7.18;5.90;;;16.00;99.90;;;;;;5133850;27;20455;-77
2021/07/01 02:19:54;;;;;;;6.07;5.47;;;16.00;99.90;;;;;;5133840;27;20032;-77
2021/07/01 02:22:20;;;;;;;6.75;6.07;;;16.00;99.90;;;;;;5132367;27;20133;-77
2021/07/01 02:24:46;;;;;;;6.43;5.25;;;16.00;99.90;;;;;;5132549;27;20063;-78
2021/07/01 02:27:12;;;;;;;6.32;5.70;;;16.00;99.90;;;;;;5132352;27;20026;-77
2021/07/01 02:29:37;;;;;;;6.38;5.68;;;16.00;99.90;;;;;;5132441;28;20024;-78
2021/07/01 02:32:03;;;;;;;12.00;8.52;;;16.10;99.90;;;;;;5133625;27;20031;-77
2021/07/01 02:34:30;;;;;;;11.23;8.75;;;16.10;99.90;;;;;;5132369;27;20049;-78
2021/07/01 02:36:56;;;;;;;10.90;8.27;;;16.10;99.90;;;;;;5133606;27;20030;-77
2021/07/01 02:39:22;;;;;;;6.57;5.45;;;16.20;99.90;;;;;;5132314;27;20387;-78
2021/07/01 02:41:48;;;;;;;6.20;4.72;;;16.20;99.90;;;;;;5127791;28;20051;-77
2021/07/01 02:44:14;;;;;;;9.95;7.15;;;16.20;99.90;;;;;;5113262;28;20122;-77
2021/07/01 02:46:39;;;;;;;7.50;6.07;;;16.20;99.90;;;;;;5111694;28;20106;-77
2021/07/01 02:49:05;;;;;;;10.90;7.90;;;16.20;99.90;;;;;;5111690;28;20008;-78
2021/07/01 02:51:31;;;;;;;10.63;7.63;;;16.20;99.90;;;;;;5111391;28;20419;-78
2021/07/01 02:53:57;;;;;;;10.68;7.60;;;16.10;99.90;;;;;;5112872;28;20024;-77
2021/07/01 02:56:22;;;;;;;11.52;8.07;;;16.10;99.90;;;;;;5112839;28;20152;-78
2021/07/01 02:58:49;;;;;;;11.40;8.05;;;16.00;99.90;;;;;;5111681;28;20050;-78
2021/07/01 03:01:15;;;;;;;10.48;7.80;;;16.00;99.90;;;;;;5111431;28;20468;-78
2021/07/01 03:03:41;;;;;;;8.50;7.47;;;15.90;99.90;;;;;;5113344;28;20019;-77
2021/07/01 03:06:08;;;;;;;7.75;7.00;;;15.90;99.90;;;;;;5115292;28;20430;-77
2021/07/01 03:08:34;;;;;;;10.05;7.22;;;15.80;99.90;;;;;;5115370;28;20077;-78
2021/07/01 03:11:00;;;;;;;9.02;7.05;;;15.90;99.90;;;;;;5116337;28;20035;-77
2021/07/01 03:13:25;;;;;;;7.57;6.70;;;15.90;99.90;;;;;;5099554;28;20457;-78
2021/07/01 03:15:51;;;;;;;7.28;6.50;;;16.00;99.90;;;;;;5094780;28;20024;-77
2021/07/01 03:18:16;;;;;;;7.85;6.85;;;16.10;99.90;;;;;;5094768;28;20024;-78
2021/07/01 03:20:42;;;;;;;7.72;6.82;;;16.10;99.90;;;;;;5094588;28;20024;-78
2021/07/01 03:23:08;;;;;;;8.70;6.45;;;16.10;99.90;;;;;;5095949;28;20073;-77
2021/07/01 03:25:33;;;;;;;8.02;6.32;;;16.20;99.90;;;;;;5096316;28;20036;-77
2021/07/01 03:27:59;;;;;;;7.90;6.25;;;16.20;99.90;;;;;;5115845;28;20039;-78
2021/07/01 03:30:25;;;;;;;7.25;6.55;;;16.20;99.90;;;;;;5116210;28;20059;-77
2021/07/01 03:32:50;;;;;;;10.88;7.22;;;16.10;99.90;;;;;;5114767;28;20058;-78
2021/07/01 03:35:16;;;;;;;9.75;8.05;;;16.10;99.90;;;;;;5114787;28;20447;-78
2021/07/01 03:37:42;;;;;;;12.43;9.15;;;16.10;99.90;;;;;;5114814;28;20115;-77
2021/07/01 03:40:09;;;;;;;12.15;9.60;;;16.10;99.90;;;;;;5115700;27;20439;-78
2021/07/01 03:42:35;;;;;;;9.43;7.50;;;16.10;99.90;;;;;;5106144;28;20039;-78
2021/07/01 03:45:01;;;;;;;7.60;6.63;;;16.10;99.90;;;;;;5094217;28;20074;-78
2021/07/01 03:47:26;;;;;;;8.05;6.97;;;16.10;99.90;;;;;;5094151;28;20016;-77
2021/07/01 03:49:52;;;;;;;8.10;5.95;;;16.10;99.90;;;;;;5095079;28;20019;-78
2021/07/01 03:52:18;;;;;;;7.40;6.50;;;16.20;99.90;;;;;;5095339;28;20028;-77
2021/07/01 03:54:43;;;;;;;7.43;6.70;;;16.30;99.90;;;;;;5094038;28;20461;-77
2021/07/01 03:57:09;;;;;;;6.95;6.07;;;16.40;99.90;;;;;;5095196;28;20024;-77
2021/07/01 03:59:35;;;;;;;6.75;6.07;;;16.40;99.90;;;;;;5095316;28;20019;-77
2021/07/01 04:02:01;;;;;;;8.43;6.93;;;16.40;99.90;;;;;;5093246;28;20401;-77
2021/07/01 04:04:27;;;;;;;8.18;6.28;;;16.50;99.90;;;;;;5109847;28;20024;-78
2021/07/01 04:06:53;;;;;;;8.18;5.95;;;16.60;99.90;;;;;;5114090;28;20028;-77
2021/07/01 04:09:19;;;;;;;6.78;6.18;;;16.60;99.90;;;;;;5115471;28;20020;-78
2021/07/01 04:11:44;;;;;;;8.00;5.85;;;16.70;99.90;;;;;;5114255;28;20031;-78
2021/07/01 04:14:10;;;;;;;10.10;6.20;;;16.70;99.90;;;;;;5114021;28;20110;-79
2021/07/01 04:16:36;;;;;;;9.13;7.03;;;16.80;99.90;;;;;;5113794;28;20023;-78
2021/07/01 04:19:01;;;;;;;6.70;5.70;;;16.90;99.90;;;;;;5113933;28;20034;-78
2021/07/01 04:21:28;;;;;;;7.32;6.55;;;16.90;99.90;;;;;;5115163;28;20042;-78
2021/07/01 04:23:57;;;;;;;7.28;6.32;;;16.90;99.90;;;;;;5113858;28;20031;-79
2021/07/01 04:26:23;;;;;;;9.90;6.82;;;17.00;99.90;;;;;;5112177;28;20055;-78
2021/07/01 04:28:50;;;;;;;7.82;6.40;;;17.00;99.90;;;;;;5114047;28;20016;-78
2021/07/01 04:31:16;;;;;;;8.70;6.13;;;17.10;99.90;;;;;;5112126;28;20115;-77
2021/07/01 04:33:42;;;;;;;6.97;6.07;;;17.10;99.90;;;;;;5111699;28;20045;-76
2021/07/01 04:36:08;;;;;;;7.82;5.97;;;17.20;99.90;;;;;;5113698;28;20024;-76
2021/07/01 04:38:33;;;;;;;15.52;6.50;;;17.30;99.90;;;;;;5112218;28;20386;-76
2021/07/01 04:40:59;;;;;;;10.57;6.72;;;17.30;99.90;;;;;;5112553;28;20032;-76
2021/07/01 04:43:25;;;;;;;7.43;6.47;;;17.30;99.90;;;;;;5112775;28;20135;-77
2021/07/01 04:45:50;;;;;;;7.43;6.50;;;17.40;99.90;;;;;;5113337;28;20051;-76
2021/07/01 04:48:16;;;;;;;6.50;6.00;;;17.40;99.90;;;;;;5098469;28;20031;-76
2021/07/01 04:50:42;;;;;;;8.88;5.90;;;17.40;99.90;;;;;;5092425;28;20385;-76
2021/07/01 04:53:07;;;;;;;9.52;7.43;;;17.40;99.90;;;;;;5093110;28;20012;-76
2021/07/01 04:55:33;;;;;;;9.13;7.30;;;17.40;99.90;;;;;;5090749;28;20059;-76
2021/07/01 04:57:58;;;;;;;7.25;6.35;;;17.40;99.90;;;;;;5092018;28;20032;-76
2021/07/01 05:00:24;;;;;;;8.43;7.10;;;17.50;99.90;;;;;;5090671;28;20038;-77
2021/07/01 05:02:50;;;;;;;8.55;6.95;;;17.50;99.90;;;;;;5091392;28;20061;-77
2021/07/01 05:05:15;;;;;;;10.65;8.10;;;17.50;99.90;;;;;;5112271;28;20016;-77
2021/07/01 05:07:45;;;;;;;7.72;7.03;;;17.50;99.90;;;;;;5112674;28;20039;-77
2021/07/01 05:10:14;;;;;;;9.02;7.63;;;17.50;99.90;;;;;;5112828;28;20503;-77
2021/07/01 05:12:40;;;;;;;9.95;7.82;;;17.60;99.90;;;;;;5112935;28;20052;-77
2021/07/01 05:15:06;;;;;;;12.25;8.18;;;17.60;99.90;;;;;;5114140;28;20055;-77
2021/07/01 05:17:33;;;;;;;12.00;8.50;;;17.60;99.90;;;;;;5114142;28;20020;-77
2021/07/01 05:19:59;;;;;;;10.73;8.60;;;17.60;99.90;;;;;;5112749;28;20111;-77
2021/07/01 05:22:25;;;;;;;11.80;8.85;;;17.60;99.90;;;;;;5108374;28;20076;-76
2021/07/01 05:24:51;;;;;;;11.48;8.63;;;17.60;99.90;;;;;;5110505;28;20023;-77
2021/07/01 05:27:16;;;;;;;9.75;7.95;;;17.70;99.90;;;;;;5111671;28;20055;-76
2021/07/01 05:29:42;;;;;;;12.75;7.95;;;17.70;99.90;;;;;;5112357;28;20478;-77
2021/07/01 05:32:08;;;;;;;11.52;8.50;;;17.80;99.90;;;;;;5111530;28;20033;-77
2021/07/01 05:34:34;;;;;;;12.10;7.88;;;17.80;99.90;;;;;;5106986;28;20031;-76
2021/07/01 05:36:59;;;;;;;9.23;7.25;;;17.90;99.90;;;;;;5112858;28;20136;-77
2021/07/01 05:39:25;;;;;;;8.20;6.90;;;17.90;99.90;;;;;;5113093;28;20028;-77
2021/07/01 05:41:51;;;;;;;9.65;7.63;;;17.90;99.90;;;;;;5112112;28;20074;-77
2021/07/01 05:44:17;;;;;;;10.25;7.60;;;18.10;99.90;;;;;;5112897;28;20030;-76
2021/07/01 05:46:42;;;;;;;7.43;6.68;;;18.10;99.90;;;;;;5111064;28;20031;-77
2021/07/01 05:49:08;;;;;;;8.60;7.60;;;18.20;99.90;;;;;;5112895;28;20024;-78
2021/07/01 05:51:35;;;;;;;9.27;7.60;;;18.20;99.90;;;;;;5111438;28;20508;-78
2021/07/01 05:56:36;;;;;;;10.55;7.75;;;18.30;99.90;;;;;;5110241;28;20032;-78
2021/07/01 05:59:07;;;;;;;8.65;6.78;;;18.30;99.90;;;;;;5103149;28;20031;-77
2021/07/01 06:01:34;;;;;;;8.23;6.90;;;18.30;99.90;;;;;;5101342;28;20050;-77
2021/07/01 06:04:03;;;;;;;9.75;7.28;;;18.30;99.90;;;;;;5110383;28;20156;-77
2021/07/01 06:06:30;;;;;;;7.03;6.25;;;18.30;99.90;;;;;;5109749;28;20028;-77
2021/07/01 06:08:57;;;;;;;8.45;6.13;;;18.30;99.90;;;;;;5111178;28;20034;-77
2021/07/01 06:11:24;;;;;;;7.10;6.50;;;18.20;99.90;;;;;;5111263;28;20543;-77
2021/07/01 06:13:50;;;;;;;8.52;6.57;;;18.20;99.90;;;;;;5109910;28;20361;-77
2021/07/01 06:16:16;;;;;;;9.95;6.97;;;18.20;99.90;;;;;;5111029;28;20070;-77
2021/07/01 06:18:43;;;;;;;8.65;6.93;;;18.20;99.90;;;;;;5111235;28;20051;-77
2021/07/01 06:21:09;;;;;;;10.50;7.13;;;18.20;99.90;;;;;;5109842;28;20023;-77
2021/07/01 06:23:40;;;;;;;8.15;6.57;;;18.10;99.90;;;;;;5111138;28;20512;-77
2021/07/01 06:26:06;;;;;;;7.72;6.78;;;18.20;99.90;;;;;;5111287;28;20023;-77
2021/07/01 06:28:40;;;;;;;7.63;6.07;;;18.20;99.90;;;;;;5113269;28;20028;-77
2021/07/01 06:31:09;;;;;;;6.90;6.20;;;18.20;99.90;;;;;;5110098;28;20468;-76
2021/07/01 06:33:39;;;;;;;12.10;7.00;;;18.10;99.90;;;;;;5111920;28;20012;-77
2021/07/01 06:36:07;;;;;;;10.23;7.68;;;18.10;99.90;;;;;;5113110;28;20019;-77
2021/07/01 06:38:35;;;;;;;8.75;6.97;;;18.10;99.90;;;;;;5113757;28;20030;-77
2021/07/01 06:41:02;;;;;;;9.35;8.18;;;18.10;99.90;;;;;;5117060;28;20016;-77
2021/07/01 06:43:29;;;;;;;8.65;7.45;;;18.10;99.90;;;;;;5115862;28;20015;-77
2021/07/01 06:45:56;;;;;;;7.85;7.15;;;18.10;99.90;;;;;;5117083;28;20088;-76
2021/07/01 06:48:23;;;;;;;7.45;6.70;;;18.10;99.90;;;;;;5115860;28;20038;-77
2021/07/01 06:50:59;;;;;;;10.75;7.47;;;18.10;99.90;;;;;;5115722;28;20061;-77
2021/07/01 06:53:26;;;;;;;12.38;7.43;;;18.10;99.90;;;;;;5116999;28;20032;-77
2021/07/01 06:55:53;;;;;;;10.20;7.63;;;18.10;99.90;;;;;;5115577;28;20016;-77
2021/07/01 06:58:19;;;;;;;10.23;7.10;;;18.10;99.90;;;;;;5115578;28;20052;-77
2021/07/01 07:00:46;;;;;;;8.50;6.88;;;18.10;99.90;;;;;;5114074;28;20046;-77
2021/07/01 07:03:17;;;;;;;9.07;6.90;;;18.10;99.90;;;;;;5096366;28;20454;-77
2021/07/01 07:05:50;;;;;;;10.55;7.65;;;18.10;99.90;;;;;;5096359;28;20031;-77
2021/07/01 07:08:15;;;;;;;;;;;18.20;99.90;;;;;;5096651;28;20078;-77
2021/07/01 07:10:42;;;;;;;7.10;6.32;;;18.20;99.90;;;;;;5094941;28;19912;-76
2021/07/01 07:13:09;;;;;;;7.00;6.28;;;18.30;99.90;;;;;;5094789;28;20547;-77
2021/07/01 07:15:35;;;;;;;6.53;5.93;;;18.20;99.90;;;;;;5119223;27;20054;-77
2021/07/01 07:18:09;;;;;;;8.63;6.47;;;18.20;99.90;;;;;;5135721;27;20053;-77
2021/07/01 07:20:37;;;;;;;6.35;5.63;;;18.20;99.90;;;;;;5136969;27;20053;-76
2021/07/01 07:23:05;;;;;;;12.18;5.75;;;18.20;99.90;;;;;;5135568;27;20407;-77
2021/07/01 07:25:37;;;;;;;7.57;6.43;;;18.20;99.90;;;;;;5136831;27;20087;-77
2021/07/01 07:28:08;;;;;;;7.93;6.72;;;18.20;99.90;;;;;;5135600;27;20030;-77
2021/07/01 07:30:34;;;;;;;9.05;6.70;;;18.30;99.90;;;;;;5134128;27;20023;-77
2021/07/01 07:33:06;;;;;;;10.45;6.78;;;18.30;99.90;;;;;;5114422;28;20022;-76
2021/07/01 07:35:33;;;;;;;9.02;6.72;;;18.30;99.90;;;;;;5116125;28;20051;-77
2021/07/01 07:37:59;;;;;;;7.65;6.93;;;18.30;99.90;;;;;;5114773;28;20020;-77
2021/07/01 07:40:27;;;;;;;9.50;7.43;;;18.30;99.90;;;;;;5114819;28;20088;-77
2021/07/01 07:42:53;;;;;;;12.57;8.65;;;18.30;99.90;;;;;;5114571;28;20027;-77
2021/07/01 07:45:19;;;;;;;10.25;7.47;;;18.30;99.90;;;;;;5114664;28;20015;-78
2021/07/01 07:47:44;;;;;;;8.73;7.00;;;18.20;99.90;;;;;;5105452;28;20024;-76
2021/07/01 07:50:12;;;;;;;8.88;7.28;;;18.30;99.90;;;;;;5094842;28;20428;-78
2021/07/01 07:52:48;;;;;;;9.68;7.55;;;18.30;99.90;;;;;;5094134;28;20031;-77
2021/07/01 07:55:16;;;;;;;11.07;7.88;;;18.30;99.90;;;;;;5095310;28;20077;-77
2021/07/01 07:57:44;;;;;;;12.00;7.65;;;18.20;99.90;;;;;;5095283;28;20059;-77
2021/07/01 08:00:10;;;;;;;7.25;6.32;;;18.10;99.90;;;;;;5093944;28;20381;-77
2021/07/01 08:02:49;;;;;;;9.25;6.90;;;18.10;99.90;;;;;;5095073;28;20096;-77
2021/07/01 08:05:23;;;;;;;6.32;5.63;;;18.00;99.90;;;;;;5093826;28;20016;-77
2021/07/01 08:07:50;;;;;;;8.38;5.32;;;18.00;99.90;;;;;;5093873;28;20106;-76
2021/07/01 08:10:19;;;;;;;8.60;4.68;;;18.10;99.90;;;;;;5093750;28;20054;-76
2021/07/01 08:12:49;;;;;;;7.93;4.43;;;18.10;99.90;;;;;;5095051;28;20055;-76
2021/07/01 08:15:18;;;;;;;5.55;3.90;;;18.10;99.90;;;;;;5093599;28;20061;-76
2021/07/01 08:17:46;;;;;;;6.30;4.30;;;17.90;99.90;;;;;;5103270;28;20080;-76
2021/07/01 08:20:14;;;;;;;5.10;4.00;;;17.90;99.90;;;;;;5114010;28;20068;-76
2021/07/01 08:22:46;;;;;;;6.35;4.40;;;17.90;99.90;;;;;;5113824;28;20123;-76
2021/07/01 08:25:13;;;;;;;5.85;4.68;;;17.90;99.90;;;;;;5115227;28;20387;-76
2021/07/01 08:27:41;;;;;;;7.00;4.30;;;17.80;99.90;;;;;;5115410;28;20028;-76
2021/07/01 08:30:08;;;;;;;5.32;4.30;;;17.80;99.90;;;;;;5113750;27;20069;-77
2021/07/01 08:32:36;;;;;;;5.88;4.53;;;17.80;99.90;;;;;;5114976;28;20028;-76
2021/07/01 08:35:02;;;;;;;6.93;5.25;;;17.90;99.90;;;;;;5114953;27;20473;-76
2021/07/01 08:37:32;;;;;;;5.75;4.72;;;17.90;99.90;;;;;;5114936;28;20023;-76
2021/07/01 08:40:03;;;;;;;6.15;5.40;;;18.00;99.90;;;;;;5113615;28;20049;-76
2021/07/01 08:42:37;;;;;;;6.40;5.80;;;18.00;99.90;;;;;;5114780;28;20127;-76
2021/07/01 08:45:09;;;;;;;7.07;4.57;;;18.20;99.90;;;;;;5114845;28;20051;-76
2021/07/01 08:47:43;;;;;;;5.45;4.93;;;18.20;99.90;;;;;;5108219;28;20020;-76
2021/07/01 08:50:15;;;;;;;4.35;3.95;;;18.30;99.90;;;;;;5094247;28;20028;-77
2021/07/01 08:52:55;;;;;;;6.07;4.30;;;18.40;99.90;;;;;;5094311;28;20086;-77
2021/07/01 08:55:27;;;;;;;7.78;4.43;;;18.40;99.90;;;;;;5092836;28;20024;-77
2021/07/01 08:57:55;;;;;;;6.07;4.85;;;18.50;99.90;;;;;;5094080;28;20028;-77
2021/07/01 09:00:22;;;;;;;5.50;4.47;;;18.60;99.90;;;;;;5095011;28;20024;-77
2021/07/01 09:03:08;;;;;;;5.18;4.20;;;18.60;99.90;;;;;;5113191;28;20038;-77
2021/07/01 09:05:38;;;;;;;7.82;4.82;;;18.70;99.90;;;;;;5096036;28;20036;-76
2021/07/01 09:08:12;;;;;;;7.80;4.50;;;18.70;99.90;;;;;;5114310;28;20028;-77
2021/07/01 09:10:46;;;;;;;5.05;4.63;;;18.70;99.90;;;;;;5114148;28;20062;-77
2021/07/01 09:13:16;;;;;;;4.45;4.05;;;18.70;99.90;;;;;;5114201;28;20074;-77
2021/07/01 09:15:41;;;;;;;4.43;4.03;;;18.70;99.90;;;;;;5114207;28;20102;-76
2021/07/01 09:18:09;;;;;;;6.75;5.00;;;18.70;99.90;;;;;;5112818;28;20433;-77
2021/07/01 09:20:38;;;;;;;5.85;5.18;;;18.70;99.90;;;;;;5114074;28;20019;-77
2021/07/01 09:23:05;;;;;;;9.77;5.47;;;18.70;99.90;;;;;;5112526;28;20076;-77
2021/07/01 09:25:31;;;;;;;5.88;4.68;;;18.80;99.90;;;;;;5113987;28;20016;-76
2021/07/01 09:27:58;;;;;;;7.00;5.13;;;18.80;99.90;;;;;;5113969;28;20153;-76
2021/07/01 09:30:29;;;;;;;5.38;4.90;;;18.90;99.90;;;;;;5101680;28;20052;-77
2021/07/01 09:33:06;;;;;;;8.43;5.10;;;19.10;99.90;;;;;;5093533;28;20084;-77
2021/07/01 09:35:34;;;;;;;4.53;4.15;;;19.10;99.90;;;;;;5092057;28;20024;-76
2021/07/01 09:38:03;;;;;;;4.78;4.32;;;19.20;99.90;;;;;;5093471;28;20035;-77
2021/07/01 09:40:30;;;;;;;3.90;3.60;;;19.30;99.90;;;;;;5092086;28;20492;-77
2021/07/01 09:43:01;;;;;;;3.88;3.58;;;19.40;99.90;;;;;;5093311;28;20122;-77
2021/07/01 09:45:27;;;;;;;3.88;3.58;;;19.50;99.90;;;;;;5092096;28;20111;-77
2021/07/01 09:48:06;;;;;;;3.15;2.85;;;19.60;99.90;;;;;;5092669;28;20115;-77
2021/07/01 09:50:36;;;;;;;4.38;3.75;;;19.70;99.90;;;;;;5103661;28;20035;-77
2021/07/01 09:53:03;;;;;;;4.07;3.20;;;19.70;99.90;;;;;;5111064;28;20383;-77
2021/07/01 09:55:31;;;;;;;3.45;3.15;;;19.80;99.90;;;;;;5111669;28;20042;-77
2021/07/01 09:58:06;;;;;;;3.30;2.92;;;19.80;99.90;;;;;;5109394;28;20074;-77
2021/07/01 10:00:31;;;;;;;3.70;3.10;;;19.80;95.60;;;;;;5110948;28;20019;-77
2021/07/01 10:03:05;;;;;;;3.38;3.08;;;19.80;91.20;;;;;;5112104;28;20043;-76
2021/07/01 10:05:32;;;;;;;3.22;2.92;;;19.80;91.70;;;;;;5111804;28;20011;-77
2021/07/01 10:07:57;;;;;;;2.90;2.58;;;19.80;94.30;;;;;;5110634;28;20043;-77
2021/07/01 10:10:24;;;;;;;3.53;3.00;;;19.80;96.50;;;;;;5111925;28;20405;-77
2021/07/01 10:12:58;;;;;;;3.75;3.33;;;19.90;96.20;;;;;;5111704;28;20012;-77
2021/07/01 10:15:25;;;;;;;3.30;3.10;;;20.10;97.90;;;;;;5109169;28;20103;-77
2021/07/01 10:18:05;;;;;;;3.13;2.92;;;20.20;97.70;;;;;;5111673;28;20061;-77
2021/07/01 10:20:34;;;;;;;3.83;2.90;;;20.20;92.70;;;;;;5110029;28;20529;-77
2021/07/01 10:23:00;;;;;;;5.35;2.63;;;20.20;91.60;;;;;;5112851;28;20034;-77
2021/07/01 10:25:33;;;;;;;3.50;2.67;;;20.10;88.70;;;;;;5111762;28;20051;-77
2021/07/01 10:28:13;;;;;;;2.95;2.75;;;20.10;91.60;;;;;;5111966;28;20015;-76
2021/07/01 10:30:41;;;;;;;3.03;2.50;;;20.30;91.80;;;;;;5111566;28;20020;-77
2021/07/01 10:33:28;;;;;;;2.88;2.67;;;20.40;89.30;;;;;;5111615;28;20061;-77
2021/07/01 10:36:00;;;;;;;2.80;2.60;;;20.40;88.90;;;;;;5109584;28;20049;-77
2021/07/01 10:38:26;;;;;;;2.92;2.67;;;20.40;86.80;;;;;;5092673;28;20024;-77
2021/07/01 10:40:54;;;;;;;2.75;2.63;;;20.40;87.70;;;;;;5091273;28;20413;-77
2021/07/01 10:43:41;;;;;;;3.33;2.92;;;20.40;86.90;;;;;;5091329;28;20097;-77
2021/07/01 10:46:08;;;;;;;3.47;3.17;;;20.40;86.10;;;;;;5092278;28;20032;-77
2021/07/01 10:48:33;;;;;;;5.20;3.90;;;20.30;85.90;;;;;;5092744;28;20062;-77
2021/07/01 10:51:13;;;;;;;7.82;4.10;;;20.40;87.90;;;;;;5098373;28;20047;-77
2021/07/01 10:53:43;;;;;;;5.45;4.82;;;20.40;91.30;;;;;;5105000;28;20032;-77
2021/07/01 10:56:40;;;;;;;8.73;5.80;;;20.40;91.60;;;;;;5092498;28;20072;-76
2021/07/01 10:59:06;;;;;;;8.10;6.18;;;20.40;92.40;;;;;;5092566;28;20055;-77
2021/07/01 11:01:34;;;;;;;8.65;6.72;;;20.30;93.30;;;;;;5092444;28;20039;-77
2021/07/01 11:04:13;;;;;;;10.43;7.03;;;20.20;96.10;;;;;;5092552;28;20024;-77
2021/07/01 11:06:42;;;;;;;9.93;6.53;;;20.10;96.60;;;;;;5092837;28;20024;-77
2021/07/01 11:09:10;;;;;;;8.05;6.85;;;20.10;98.70;;;;;;5091180;28;20020;-77
2021/07/01 11:11:38;;;;;;;10.00;6.97;;;20.20;99.90;;;;;;5091019;28;20094;-77
2021/07/01 11:14:14;;;;;;;9.05;8.15;;;20.10;99.90;;;;;;5094700;28;20058;-77
2021/07/01 11:16:44;;;;;;;9.38;7.75;;;20.00;99.90;;;;;;5112918;28;20016;-77
2021/07/01 11:19:15;;;;;;;7.90;7.00;;;20.00;99.90;;;;;;5110600;28;20400;-77
2021/07/01 11:21:45;;;;;;;8.75;7.25;;;19.90;99.90;;;;;;5109828;28;20043;-77
2021/07/01 11:24:13;;;;;;;8.80;6.93;;;20.00;99.90;;;;;;5111270;28;20076;-77
2021/07/01 11:26:40;;;;;;;7.43;6.13;;;20.10;99.90;;;;;;5113235;28;20369;-76
2021/07/01 11:29:08;;;;;;;9.45;7.13;;;20.20;99.90;;;;;;5112295;28;20020;-77
2021/07/01 11:31:36;;;;;;;19.17;9.00;;;20.30;99.90;;;;;;5114789;28;20388;-77
2021/07/01 11:34:04;;;;;;;9.77;8.10;;;20.50;99.90;;;;;;5114712;28;20103;-77
2021/07/01 11:36:31;;;;;;;8.82;7.53;;;20.60;99.90;;;;;;5112601;28;20031;-77
2021/07/01 11:39:15;;;;;;;10.68;7.07;;;20.80;99.40;;;;;;5113360;28;20035;-77
2021/07/01 11:41:44;;;;;;;7.55;6.68;;;21.00;92.10;;;;;;5112672;28;20487;-77
2021/07/01 11:44:12;;;;;;;9.68;8.75;;;21.20;91.70;;;;;;5115212;28;20023;-77
2021/07/01 11:46:39;;;;;;;10.93;8.85;;;21.30;87.70;;;;;;5113352;28;20481;-77
2021/07/01 11:49:06;;;;;;;9.57;8.57;;;21.50;85.40;;;;;;5114473;28;20512;-77
2021/07/01 11:51:32;;;;;;;10.38;7.68;;;21.80;85.20;;;;;;5114403;28;20050;-77
2021/07/01 11:53:58;;;;;;;9.45;8.00;;;22.00;82.50;;;;;;5111031;28;20031;-77
2021/07/01 11:56:25;;;;;;;8.05;7.35;;;22.00;81.40;;;;;;5114450;28;20015;-77
2021/07/01 11:58:51;;;;;;;6.88;6.28;;;22.10;84.50;;;;;;5113030;28;20028;-77
2021/07/01 12:01:18;;;;;;;5.07;4.57;;;22.20;78.00;;;;;;5114489;28;20051;-77
2021/07/01 12:03:51;;;;;;;6.65;5.00;;;22.30;78.70;;;;;;5112934;28;20035;-77
2021/07/01 12:06:35;;;;;;;5.85;5.05;;;22.10;78.30;;;;;;5113198;28;20023;-77
2021/07/01 12:09:01;;;;;;;4.63;4.32;;;22.10;77.90;;;;;;5114005;28;20024;-77
2021/07/01 12:11:27;;;;;;;5.13;4.63;;;22.00;77.30;;;;;;5112739;28;20526;-77
2021/07/01 12:13:52;;;;;;;4.68;4.35;;;22.10;76.30;;;;;;5113392;28;20027;-77
2021/07/01 12:16:18;;;;;;;4.22;3.83;;;22.40;76.20;;;;;;5115348;28;20024;-77
2021/07/01 12:18:44;;;;;;;4.68;3.90;;;22.70;73.50;;;;;;5114112;28;20102;-76
2021/07/01 12:21:15;;;;;;;4.60;4.20;;;23.00;74.40;;;;;;5114945;28;20123;-77
2021/07/01 12:23:53;;;;;;;4.50;4.10;;;23.00;70.30;;;;;;5113906;28;20019;-77
2021/07/01 12:26:37;;;;;;;4.40;4.00;;;23.00;69.10;;;;;;5113832;28;20076;-77
2021/07/01 12:29:45;;;;;;;4.45;3.88;;;23.10;72.80;;;;;;5115012;28;20039;-77
2021/07/01 12:32:24;;;;;;;8.70;5.60;;;23.20;71.60;;;;;;5114898;28;20019;-77
2021/07/01 12:34:50;;;;;;;8.30;4.55;;;23.20;72.20;;;;;;5115038;28;20024;-77
2021/07/01 12:37:16;;;;;;;10.48;7.20;;;23.50;71.00;;;;;;5111466;27;20490;-77
2021/07/01 12:39:47;;;;;;;11.63;7.93;;;23.50;69.10;;;;;;5134027;27;20027;-77
2021/07/01 12:42:13;;;;;;;9.10;6.68;;;23.60;71.60;;;;;;5134923;27;20039;-77
2021/07/01 12:44:42;;;;;;;12.75;7.43;;;23.70;67.60;;;;;;5133626;27;20454;-77
2021/07/01 12:47:11;;;;;;;7.70;6.28;;;23.90;66.70;;;;;;5134886;27;20027;-77
2021/07/01 12:49:38;;;;;;;12.27;7.07;;;23.90;66.10;;;;;;5135350;27;20035;-77
2021/07/01 12:52:06;;;;;;;10.05;7.10;;;24.00;65.20;;;;;;5134940;27;20490;-77